Cedar Falls, IA

7:57 AM CDT on May 05, 2015 (GMT -0500)
Laurel Circle | | Change Station
CLOSE
Current Station
Personal Weather Station
Location: Cedar Falls, IA
Elevation: 942 ft
Nearby Weather Stations

Elev 942 ft 42.52 °N, 92.46 °W | Updated 2 seconds ago

Overcast
Overcast
61.3 °F
Feels Like 61.3 °F
N
1.8
Wind Variable Wind from East
Gusts 2.5 mph

Today
High -- | Low -- °F
--% Chance of Precip.
Yesterday
High -- | Low -- °F
Precip. -- in
5:59 AM 8:14 PM
Full, 98% visible
Pressure 30.11 in
Visibility 5.0 miles
Clouds Mostly Cloudy 1100 ft
Overcast 2800 ft
Dew Point 61 °F
Humidity 98%
Rainfall 0.00 in
Snow Depth Not available.
UV 0 out of 12
Pollen 5.00 out of 12
Air Quality Not available.
Flu Activity Local Activity
SPECI KALO 051205Z 10007KT 5SM BR BKN011 OVC028 16/16 A3011 RMK AO2 T01610156

More Conditions Fewer Conditions

Pressure 30.11 in
Visibility 5.0 miles
Clouds Mostly Cloudy 1100 ft
Overcast 2800 ft
Dew Point 61 °F
Humidity 98%
Rainfall 0.00 in
Snow Depth Not available.
UV 0 out of 12
Pollen 5.00 out of 12
Air Quality Not available.
Flu Activity Local Activity
SPECI KALO 051205Z 10007KT 5SM BR BKN011 OVC028 16/16 A3011 RMK AO2 T01610156

More Conditions Fewer Conditions

Nepal has a long way to go to dig out and rebuild from a devastating earthquake. We have teamed up with several charities and organizations to make contributing to the relief effort as easy as possible.
How you can help: Portlight Strategies | Red Cross

10-Day Weather Forecast

Almanac

Astronomy

May. 05, 2015 Rise Set
Actual Time
Civil Twilight
Nautical Twilight
Astronomical Twilight
Moon
Length of Visible Light
Length of Day
Tomorrow will be .
, % of the Moon is Illuminated

Today's Extremes

State Highs State Lows

Community

WunderPhotos

Upload Photos

1,818,875 photos uploaded!

WunderBlogs® & News

Nearby

Air Quality

  Air Quality AQ Index Pollutant
Not available.

Snow Depth

Station Depth Elevation

Earthquake Activity

City Distance Mag. Time & Date
Minimum magnitude displayed is 2.5.

Coastal Water Temperatures

Place Temperature

Stations

Nearby Weather Stations

Station Location Temp. Windchill Dew Point Humidity Wind Precip. Elev Updated Type